Terminal Aerodrome Forecast
Issued by NWS

Home | Current Version | Previous Version | Text Only | Print | Product List | Glossary On
Versions: 1 2 3 4 5 6 7 8 9 10 11 12 13 14 15 16 17 18 19 20 21 22 23 24 25
000
FTUS43 KAPX 220100 AAA
TAFTVC
TAF AMD
KTVC 220128Z 2201/2224 00000KT P6SM SCT022 OVC040
     FM220900 00000KT 4SM -SHRA BR OVC018
     FM221400 11004KT P6SM OVC025=

USA.gov is the U.S. government's official web portal to all federal, state and local government web resources and services.